Time;durP1;ratioP1;P1;durP2;ratioP2;P2;SDS_P1;SDS_P2;PMS_P1;PMS_P2;Temp;Humidity;BMP_temperature;BMP_pressure;BME280_temperature;BME280_humidity;BME280_pressure;Samples;Min_cycle;Max_cycle;Signal;HPM_P1;HPM_P2
2022/10/26 04:05:03;;;;;;;12.37;6.87;;;;;;;8.14;100.00;100947.06;6586249;26;20439;-85
2022/10/26 04:08:07;;;;;;;12.88;7.25;;;;;;;8.16;100.00;100939.69;6634962;26;34740;-85
2022/10/26 04:11:10;;;;;;;13.00;6.87;;;;;;;8.17;100.00;100939.56;6618738;26;33241;-85
2022/10/26 04:14:13;;;;;;;14.10;6.65;;;;;;;8.20;100.00;100941.13;6653819;26;34895;-86
2022/10/26 04:17:15;;;;;;;10.93;6.55;;;;;;;8.25;100.00;100938.84;6622208;26;32287;-86
2022/10/26 04:20:18;;;;;;;13.13;6.95;;;;;;;8.27;100.00;100942.19;6635642;26;34182;-84
2022/10/26 04:23:21;;;;;;;15.30;7.22;;;;;;;8.29;100.00;100936.69;6646358;26;34808;-84
2022/10/26 04:26:24;;;;;;;16.37;7.10;;;;;;;8.29;100.00;100942.91;6651142;26;34580;-84
2022/10/26 04:29:26;;;;;;;13.75;7.32;;;;;;;8.33;100.00;100938.06;6640907;26;35447;-84
2022/10/26 04:32:29;;;;;;;12.37;7.10;;;;;;;8.31;100.00;100945.44;6613970;26;32542;-84
2022/10/26 04:35:32;;;;;;;12.48;7.35;;;;;;;8.31;100.00;100940.94;6633782;26;33585;-84
2022/10/26 04:38:35;;;;;;;16.75;8.73;;;;;;;8.32;100.00;100939.06;6633840;26;33895;-85
2022/10/26 04:41:37;;;;;;;15.90;9.07;;;;;;;8.27;100.00;100941.34;6633866;26;35207;-88
2022/10/26 04:44:40;;;;;;;15.80;8.43;;;;;;;8.28;100.00;100941.22;6633629;26;33862;-88
2022/10/26 04:47:43;;;;;;;16.25;9.32;;;;;;;8.34;100.00;100950.50;6633508;26;33816;-88
2022/10/26 04:50:46;;;;;;;16.35;9.52;;;;;;;8.32;100.00;100952.50;6634602;26;34781;-88
2022/10/26 04:53:48;;;;;;;14.55;9.80;;;;;;;8.34;100.00;100950.50;6634390;26;34642;-84
2022/10/26 04:56:51;;;;;;;18.30;9.90;;;;;;;8.31;100.00;100948.13;6633577;26;34184;-85
2022/10/26 04:59:59;;;;;;;19.40;9.70;;;;;;;8.27;100.00;100941.34;6634020;26;33915;-85
2022/10/26 05:03:04;;;;;;;17.65;10.27;;;;;;;8.27;100.00;100949.41;6613920;26;33316;-85
2022/10/26 05:06:06;;;;;;;18.15;9.90;;;;;;;8.27;100.00;100947.56;6634108;26;33904;-85
2022/10/26 05:09:09;;;;;;;16.20;10.40;;;;;;;8.26;100.00;100945.03;6612567;26;32201;-84
2022/10/26 05:12:12;;;;;;;18.62;10.27;;;;;;;8.28;100.00;100943.06;6634280;26;33908;-84
2022/10/26 05:15:15;;;;;;;18.45;9.27;;;;;;;8.27;100.00;100949.41;6634767;26;33555;-84
2022/10/26 05:18:17;;;;;;;14.85;9.55;;;;;;;8.25;100.00;100946.88;6634756;26;33915;-84
2022/10/26 05:21:20;;;;;;;18.67;10.18;;;;;;;8.23;100.00;100953.38;6634335;26;34065;-84
2022/10/26 05:24:23;;;;;;;27.25;10.07;;;;;;;8.17;100.00;100955.66;6634426;26;34593;-84
2022/10/26 05:27:25;;;;;;;17.90;9.70;;;;;;;8.18;100.00;100959.19;6634274;26;34001;-84
2022/10/26 05:30:29;;;;;;;22.85;10.52;;;;;;;8.11;100.00;100971.50;6634511;26;33777;-84
2022/10/26 05:33:31;;;;;;;16.48;10.57;;;;;;;8.07;100.00;100973.66;6641058;26;34491;-84
2022/10/26 05:36:34;;;;;;;17.58;9.95;;;;;;;8.07;100.00;100972.78;6636942;26;34050;-84
2022/10/26 05:39:37;;;;;;;17.60;9.15;;;;;;;8.06;100.00;100974.62;6633570;26;34197;-84
2022/10/26 05:42:39;;;;;;;21.05;9.38;;;;;;;7.99;100.00;100972.69;6633872;26;34426;-84
2022/10/26 05:45:42;;;;;;;21.23;9.60;;;;;;;8.02;100.00;100978.59;6614242;26;32523;-84
2022/10/26 05:48:45;;;;;;;25.67;9.77;;;;;;;7.98;100.00;100974.50;6614216;26;32496;-84
2022/10/26 05:51:48;;;;;;;19.83;9.40;;;;;;;8.00;100.00;100974.38;6632374;26;34306;-84
2022/10/26 05:54:50;;;;;;;23.95;10.27;;;;;;;7.98;100.00;100982.53;6633706;26;33898;-84
2022/10/26 05:57:53;;;;;;;21.42;9.68;;;;;;;8.00;100.00;100985.09;6633637;26;33691;-84
2022/10/26 06:01:17;;;;;;;18.77;9.70;;;;;;;8.06;100.00;100979.97;6633257;26;33758;-84
2022/10/26 06:04:32;;;;;;;17.48;9.82;;;;;;;8.13;100.00;100985.59;6633296;26;34106;-84
2022/10/26 06:07:34;;;;;;;22.48;9.20;;;;;;;8.16;100.00;100991.53;6632722;26;35089;-84
2022/10/26 06:10:38;;;;;;;19.37;9.85;;;;;;;8.25;100.00;100991.62;6634030;26;34269;-83
2022/10/26 06:13:41;;;;;;;19.20;10.00;;;;;;;8.31;100.00;100994.56;6633665;26;33923;-84
2022/10/26 06:17:00;;;;;;;16.70;10.02;;;;;;;8.44;100.00;100993.41;6613102;26;33680;-83
2022/10/26 06:20:38;;;;;;;19.80;9.88;;;;;;;8.56;100.00;100997.59;6633787;26;34789;-83
2022/10/26 06:24:10;;;;;;;18.70;9.57;;;;;;;8.74;100.00;101001.16;6620216;26;33515;-84
2022/10/26 06:27:37;;;;;;;25.27;11.82;;;;;;;9.00;100.00;101014.69;6568030;26;32971;-83
2022/10/26 06:30:40;;;;;;;22.48;12.30;;;;;;;9.21;100.00;101011.69;6634289;26;33860;-83
2022/10/26 06:33:43;;;;;;;20.98;12.73;;;;;;;9.49;100.00;101007.09;6632740;26;34262;-83
2022/10/26 06:36:48;;;;;;;20.42;12.75;;;;;;;9.66;100.00;101013.44;6633430;26;35327;-84
2022/10/26 06:39:52;;;;;;;19.98;12.57;;;;;;;9.84;100.00;101007.19;6613404;26;32377;-84
2022/10/26 06:42:59;;;;;;;19.80;11.52;;;;;;;10.03;100.00;101006.97;6633795;26;34690;-84
2022/10/26 06:59:47;;;;;;;21.67;11.68;;;;;;;11.62;100.00;101026.84;5605380;31;229083;-84
2022/10/26 07:02:50;;;;;;;18.85;10.05;;;;;;;11.62;100.00;101026.84;5593944;31;34189;-84
2022/10/26 07:05:53;;;;;;;17.98;10.52;;;;;;;11.07;100.00;101020.22;5592054;31;33639;-84
2022/10/26 07:08:56;;;;;;;19.12;10.35;;;;;;;11.13;100.00;101022.25;5581010;31;32619;-85
2022/10/26 07:11:59;;;;;;;18.30;9.73;;;;;;;11.29;100.00;101024.16;5595856;31;34503;-87
2022/10/26 07:15:02;;;;;;;20.12;10.75;;;;;;;11.41;100.00;101024.66;5599813;31;33689;-88
2022/10/26 07:18:06;;;;;;;16.02;10.13;;;;;;;11.55;100.00;101018.59;5599784;31;33861;-89
2022/10/26 07:21:09;;;;;;;22.50;10.98;;;;;;;11.66;100.00;101024.66;5597337;31;34630;-90
2022/10/26 07:24:11;;;;;;;20.10;9.73;;;;;;;11.76;100.00;101019.94;5600000;31;34157;-81
2022/10/26 07:27:15;;;;;;;16.95;9.45;;;;;;;11.97;100.00;101020.28;5595436;31;33804;-84
2022/10/26 07:30:17;;;;;;;15.00;10.10;;;;;;;12.14;100.00;101018.41;5601631;31;35064;-84
2022/10/26 07:33:20;;;;;;;18.95;9.88;;;;;;;12.29;100.00;101026.63;5592027;31;34087;-84
2022/10/26 07:36:23;;;;;;;18.37;10.32;;;;;;;12.52;100.00;101025.84;5601017;31;33723;-83
2022/10/26 07:39:26;;;;;;;17.77;10.63;;;;;;;12.58;100.00;101027.88;5613015;31;33995;-83
2022/10/26 07:42:29;;;;;;;17.37;10.10;;;;;;;12.67;100.00;101022.25;5604696;31;34173;-83
2022/10/26 07:45:32;;;;;;;18.30;10.85;;;;;;;12.77;100.00;101027.44;5587547;31;34089;-84
2022/10/26 07:48:34;;;;;;;19.02;10.73;;;;;;;12.94;100.00;101031.75;5583633;31;32405;-83
2022/10/26 07:51:37;;;;;;;17.33;11.10;;;;;;;13.11;100.00;101029.78;5594796;31;33348;-83
2022/10/26 07:54:40;;;;;;;20.33;11.45;;;;;;;13.32;100.00;101037.28;5589427;31;34391;-84
2022/10/26 07:57:42;;;;;;;18.25;10.93;;;;;;;13.35;100.00;101034.22;5578305;31;33539;-85
2022/10/26 08:00:45;;;;;;;15.10;10.23;;;;;;;13.34;100.00;101031.72;5566877;31;33499;-84
2022/10/26 08:03:52;;;;;;;22.83;11.23;;;;;;;13.37;100.00;101017.84;5571446;31;33335;-83
2022/10/26 08:06:54;;;;;;;14.45;9.68;;;;;;;13.29;100.00;101021.44;5560808;31;33810;-84
2022/10/26 08:09:57;;;;;;;17.48;10.98;;;;;;;13.30;100.00;101028.50;5550934;31;33488;-86
2022/10/26 08:12:59;;;;;;;19.05;10.82;;;;;;;13.30;100.00;101017.69;5570668;31;34115;-85
2022/10/26 08:16:04;;;;;;;15.13;9.90;;;;;;;13.42;100.00;101019.97;5554317;32;32341;-89
2022/10/26 08:19:06;;;;;;;17.45;9.48;;;;;;;13.78;100.00;101021.03;5583794;31;34331;-85
2022/10/26 08:22:09;;;;;;;14.90;8.80;;;;;;;13.82;100.00;101016.94;5571574;32;33311;-88
2022/10/26 08:25:12;;;;;;;13.35;8.98;;;;;;;13.79;100.00;101011.03;5571171;32;33970;-86
2022/10/26 08:28:20;;;;;;;14.85;8.88;;;;;;;13.98;100.00;101017.78;5565274;31;33595;-83
2022/10/26 08:31:23;;;;;;;11.55;8.40;;;;;;;13.81;100.00;101020.66;5568563;31;33614;-83
2022/10/26 08:34:26;;;;;;;12.73;8.57;;;;;;;14.00;100.00;101026.56;5565869;31;33038;-84
2022/10/26 08:37:28;;;;;;;14.65;9.30;;;;;;;14.07;100.00;101024.84;5576062;31;33805;-86
2022/10/26 08:40:35;;;;;;;13.90;9.63;;;;;;;14.25;100.00;101030.72;5569634;31;33530;-85
2022/10/26 08:43:53;;;;;;;15.98;9.80;;;;;;;14.29;100.00;101028.47;5567060;32;33281;-87
2022/10/26 08:47:13;;;;;;;15.45;9.52;;;;;;;14.61;100.00;101030.00;5555002;32;32691;-85
2022/10/26 08:50:24;;;;;;;;;;;;;;;14.78;99.38;101021.66;5556491;32;34432;-86
2022/10/26 08:53:40;;;;;;;16.67;9.52;;;;;;;14.93;98.50;101020.59;5548282;32;35086;-83
2022/10/26 08:56:51;;;;;;;17.10;9.48;;;;;;;15.02;97.71;101021.31;5552941;32;33442;-87
2022/10/26 09:00:05;;;;;;;12.63;8.68;;;;;;;14.99;97.91;101027.13;5566860;32;32525;-85
2022/10/26 09:03:13;;;;;;;14.82;8.82;;;;;;;15.06;97.99;101027.19;5568451;32;34892;-83
2022/10/26 09:06:43;;;;;;;14.48;8.75;;;;;;;15.17;97.02;101032.97;5567110;32;33559;-82
2022/10/26 09:09:58;;;;;;;14.23;8.68;;;;;;;15.35;97.11;101035.22;5566694;32;34416;-82
2022/10/26 09:13:13;;;;;;;14.10;8.20;;;;;;;15.36;95.42;101039.63;5566476;32;34680;-83
2022/10/26 09:16:22;;;;;;;16.15;9.55;;;;;;;15.26;96.51;101043.69;5566383;32;34248;-82
2022/10/26 09:19:33;;;;;;;14.63;9.15;;;;;;;15.32;97.40;101038.31;5566868;32;33753;-83
2022/10/26 09:22:51;;;;;;;15.00;9.15;;;;;;;15.69;95.61;101030.16;5567651;32;34346;-82
2022/10/26 09:25:59;;;;;;;16.15;9.73;;;;;;;15.72;95.56;101041.47;5566736;32;33768;-83
2022/10/26 09:29:05;;;;;;;15.27;8.77;;;;;;;15.90;94.02;101041.00;5561857;32;35168;-83
2022/10/26 09:32:20;;;;;;;12.77;8.68;;;;;;;16.05;93.70;101044.44;5565822;32;33827;-84
2022/10/26 09:35:32;;;;;;;17.35;8.85;;;;;;;16.32;93.01;101048.22;5546815;32;34028;-83
2022/10/26 09:38:54;;;;;;;15.25;9.25;;;;;;;16.41;92.73;101048.88;5549043;32;33459;-89
2022/10/26 09:42:21;;;;;;;16.05;9.48;;;;;;;16.50;93.66;101047.69;5548610;32;33405;-84
2022/10/26 09:45:34;;;;;;;12.93;7.70;;;;;;;16.60;90.77;101049.19;5551031;32;33291;-84
2022/10/26 09:48:44;;;;;;;12.73;8.07;;;;;;;16.67;92.91;101056.34;5559428;32;32174;-84
2022/10/26 09:51:47;;;;;;;15.77;8.25;;;;;;;16.47;93.24;101050.81;5567153;32;34526;-84
2022/10/26 09:54:50;;;;;;;16.87;8.60;;;;;;;16.38;93.52;101048.44;5552011;32;32648;-86
2022/10/26 09:57:56;;;;;;;12.43;8.35;;;;;;;16.66;90.90;101057.37;5567353;32;33212;-86
2022/10/26 10:00:58;;;;;;;11.38;7.55;;;;;;;16.56;91.38;101056.91;5568044;32;33550;-86
2022/10/26 10:04:18;;;;;;;13.85;7.50;;;;;;;16.67;91.75;101053.63;5570595;32;34456;-86
2022/10/26 10:07:21;;;;;;;11.27;6.72;;;;;;;16.98;91.07;101055.03;5568479;32;33882;-86
2022/10/26 10:10:24;;;;;;;13.00;6.95;;;;;;;17.30;90.15;101056.19;5556074;32;33307;-89
2022/10/26 10:13:32;;;;;;;11.52;6.40;;;;;;;17.52;87.97;101053.28;5566650;32;34216;-89
2022/10/26 10:16:35;;;;;;;8.20;5.50;;;;;;;17.56;86.94;101060.03;5569391;31;33804;-87
2022/10/26 10:19:38;;;;;;;7.32;5.43;;;;;;;17.47;88.16;101058.53;5568850;32;33462;-87
2022/10/26 10:22:53;;;;;;;10.05;5.25;;;;;;;16.95;91.17;101066.34;5567397;32;33384;-87
2022/10/26 10:26:12;;;;;;;8.45;5.32;;;;;;;16.65;93.42;101061.16;5568198;31;33183;-87
2022/10/26 10:29:15;;;;;;;7.05;5.25;;;;;;;16.54;94.82;101069.88;5565580;32;32477;-86
2022/10/26 10:32:20;;;;;;;9.15;5.75;;;;;;;16.65;93.71;101065.75;5565689;32;34020;-90
2022/10/26 10:35:28;;;;;;;9.88;6.25;;;;;;;16.49;94.62;101069.62;5556749;31;34636;-90
2022/10/26 10:38:37;;;;;;;10.70;6.15;;;;;;;16.53;94.98;101058.16;5555708;31;32435;-86
2022/10/26 10:41:44;;;;;;;12.02;7.07;;;;;;;16.45;95.70;101061.03;5574220;31;33825;-85
2022/10/26 10:44:51;;;;;;;11.25;6.93;;;;;;;16.56;95.42;101056.91;5548439;32;33430;-85
2022/10/26 10:48:02;;;;;;;14.30;8.00;;;;;;;16.65;94.46;101054.88;5556945;31;34406;-85
2022/10/26 10:51:11;;;;;;;14.00;8.18;;;;;;;16.71;93.01;101052.19;5558136;32;33782;-85
2022/10/26 10:54:24;;;;;;;13.27;7.60;;;;;;;16.69;93.20;101046.09;5564561;32;33816;-85
2022/10/26 10:57:38;;;;;;;15.23;8.48;;;;;;;16.69;93.50;101053.41;5570291;31;34051;-85
2022/10/26 11:00:47;;;;;;;15.88;8.20;;;;;;;16.89;92.04;101050.84;5568554;32;33965;-86
2022/10/26 11:04:19;;;;;;;16.10;8.63;;;;;;;17.12;91.02;101048.62;5566611;32;34705;-85
2022/10/26 11:07:24;;;;;;;15.38;8.63;;;;;;;17.20;90.47;101053.03;5571932;31;33842;-86
2022/10/26 11:10:33;;;;;;;14.52;8.68;;;;;;;17.25;90.79;101045.06;5571630;31;33959;-86
2022/10/26 11:13:40;;;;;;;17.48;9.45;;;;;;;16.98;92.62;101052.31;5565859;31;34409;-85
2022/10/26 11:16:47;;;;;;;16.85;9.02;;;;;;;16.88;92.74;101052.72;5566831;31;33667;-86
2022/10/26 11:19:58;;;;;;;16.90;8.85;;;;;;;16.99;93.08;101041.25;5562121;31;32241;-86
2022/10/26 11:23:24;;;;;;;14.15;8.32;;;;;;;17.31;90.53;101044.25;5561093;31;33305;-86
2022/10/26 11:26:34;;;;;;;15.40;8.68;;;;;;;17.35;90.83;101042.81;5572670;31;35114;-86
2022/10/26 11:29:53;;;;;;;18.92;9.13;;;;;;;17.30;91.55;101047.19;5560193;31;32607;-86
2022/10/26 11:33:19;;;;;;;16.50;8.80;;;;;;;17.28;90.95;101033.78;5567212;32;33864;-86
2022/10/26 11:36:23;;;;;;;16.60;9.45;;;;;;;17.13;92.16;101033.97;5570787;31;32893;-86
2022/10/26 11:39:45;;;;;;;17.80;9.18;;;;;;;17.38;90.72;101033.41;5569569;31;33434;-86
2022/10/26 11:42:56;;;;;;;20.95;9.43;;;;;;;18.07;86.17;101037.63;5571750;31;33433;-86
2022/10/26 11:46:20;;;;;;;17.80;9.40;;;;;;;17.85;88.57;101029.69;5573633;31;34550;-86
2022/10/26 11:49:41;;;;;;;16.60;8.68;;;;;;;18.75;82.67;101023.69;5575612;31;34543;-86
2022/10/26 11:52:51;;;;;;;17.45;9.13;;;;;;;18.72;83.35;101034.97;5568979;32;35330;-86
2022/10/26 11:55:56;;;;;;;17.05;9.68;;;;;;;18.80;82.08;101019.22;5569070;32;33738;-86
2022/10/26 11:59:00;;;;;;;17.65;9.50;;;;;;;19.08;79.65;101019.97;5564890;32;33380;-89
2022/10/26 12:02:23;;;;;;;16.65;9.18;;;;;;;18.88;81.26;101020.88;5566053;32;33482;-90
2022/10/26 12:05:39;;;;;;;18.83;10.02;;;;;;;18.27;84.01;101022.09;5566891;32;32691;-86
2022/10/26 12:08:47;;;;;;;18.08;10.32;;;;;;;17.90;86.91;101029.06;5568530;32;33763;-86
2022/10/26 12:12:05;;;;;;;16.52;9.82;;;;;;;17.73;88.58;101027.78;5567173;32;33595;-86
2022/10/26 12:15:17;;;;;;;19.10;9.98;;;;;;;17.54;89.42;101026.72;5558123;32;34670;-86
2022/10/26 12:18:19;;;;;;;19.65;11.05;;;;;;;17.70;89.00;101026.31;5562539;32;33580;-86
2022/10/26 12:21:43;;;;;;;19.10;10.40;;;;;;;17.97;88.01;101020.91;5561249;32;34426;-86
2022/10/26 12:25:23;;;;;;;20.67;9.85;;;;;;;17.76;88.08;101027.37;5550774;32;32300;-86
2022/10/26 12:28:35;;;;;;;17.40;9.77;;;;;;;18.10;86.71;101024.41;5563880;31;33875;-86
2022/10/26 12:31:37;;;;;;;17.62;9.30;;;;;;;18.20;85.16;101025.91;5563553;31;33778;-86
2022/10/26 12:34:40;;;;;;;17.73;9.35;;;;;;;18.41;85.09;101024.81;5573683;32;33538;-85
2022/10/26 12:37:42;;;;;;;15.35;9.75;;;;;;;18.56;83.34;101023.47;5577167;32;33962;-85
2022/10/26 12:40:45;;;;;;;17.08;9.77;;;;;;;18.52;83.83;101016.81;5579472;32;34138;-85
2022/10/26 12:43:48;;;;;;;17.55;9.45;;;;;;;18.38;84.85;101020.59;5576062;32;33090;-87
2022/10/26 12:46:51;;;;;;;17.02;9.15;;;;;;;18.69;83.53;101019.91;5574568;32;35292;-91
2022/10/26 12:50:17;;;;;;;17.87;9.73;;;;;;;18.97;81.78;101011.38;5568093;32;33460;-90
2022/10/26 12:53:21;;;;;;;21.55;10.73;;;;;;;19.09;80.90;101011.53;5567974;32;34683;-86
2022/10/26 12:56:34;;;;;;;16.75;8.60;;;;;;;19.10;81.65;101007.78;5568259;32;32551;-86
2022/10/26 12:59:56;;;;;;;19.10;9.85;;;;;;;19.15;80.71;101007.94;5572038;32;34201;-86
2022/10/26 13:03:20;;;;;;;18.45;9.77;;;;;;;19.00;81.79;101002.75;5569590;32;33728;-86
2022/10/26 13:06:48;;;;;;;18.48;10.13;;;;;;;18.85;82.88;101012.31;5568336;32;35314;-86
2022/10/26 13:09:56;;;;;;;19.70;10.18;;;;;;;18.80;82.01;101004.75;5570858;32;34505;-86
2022/10/26 13:13:01;;;;;;;18.33;9.98;;;;;;;18.55;84.11;101018.25;5560864;32;32331;-86
2022/10/26 13:16:09;;;;;;;17.20;9.27;;;;;;;18.49;84.25;101014.50;5566301;32;33552;-86
2022/10/26 13:19:41;;;;;;;18.45;9.98;;;;;;;18.49;84.95;101013.66;5567131;32;33928;-86
2022/10/26 13:22:46;;;;;;;18.73;9.52;;;;;;;18.39;84.54;101013.25;5560669;32;32507;-86
2022/10/26 13:26:11;;;;;;;17.40;9.93;;;;;;;18.29;85.11;101008.25;5548511;32;34005;-86
2022/10/26 13:29:14;;;;;;;17.77;9.68;;;;;;;18.45;84.29;101013.25;5565606;32;32852;-86
2022/10/26 13:32:17;;;;;;;17.70;9.07;;;;;;;18.39;84.46;101008.66;5563043;32;33751;-86
2022/10/26 13:35:23;;;;;;;20.50;10.80;;;;;;;18.29;85.90;101009.09;5567686;32;33926;-84
2022/10/26 13:38:31;;;;;;;18.33;10.35;;;;;;;18.23;85.39;101012.69;5567355;32;34016;-85
2022/10/26 13:41:37;;;;;;;18.55;10.27;;;;;;;18.03;86.51;101018.16;5556890;32;34458;-85
2022/10/26 13:45:05;;;;;;;18.42;10.13;;;;;;;17.83;87.75;101018.16;5564705;32;32826;-85
2022/10/26 13:48:19;;;;;;;21.10;11.02;;;;;;;17.76;88.87;101019.19;5567584;32;33915;-85
2022/10/26 13:51:25;;;;;;;19.23;10.45;;;;;;;17.56;91.31;101013.75;5567140;32;34008;-85
2022/10/26 13:54:45;;;;;;;19.40;10.88;;;;;;;17.40;92.12;101014.97;5564642;32;34156;-85
2022/10/26 13:58:18;;;;;;;18.95;10.38;;;;;;;17.35;92.36;101015.59;5552722;32;34632;-84
2022/10/26 14:01:24;;;;;;;21.62;10.93;;;;;;;17.23;92.76;101012.66;5553944;32;32540;-86
2022/10/26 14:04:27;;;;;;;19.77;10.68;;;;;;;17.17;93.67;101012.59;5561957;32;33145;-85
2022/10/26 14:07:36;;;;;;;19.37;10.18;;;;;;;17.10;94.97;101015.31;5568200;32;33615;-89
2022/10/26 14:10:42;;;;;;;18.23;9.65;;;;;;;17.00;96.09;101025.78;5567185;32;33237;-90
2022/10/26 14:13:47;;;;;;;16.77;9.55;;;;;;;16.89;95.79;101024.47;5568760;32;34120;-86
2022/10/26 14:16:52;;;;;;;17.95;9.73;;;;;;;16.81;96.86;101024.63;5567291;32;33127;-86
2022/10/26 14:19:55;;;;;;;17.12;9.82;;;;;;;16.85;97.04;101027.78;5567389;32;34324;-87
2022/10/26 14:22:58;;;;;;;18.23;9.80;;;;;;;16.86;97.03;101026.75;5566537;32;32757;-87
2022/10/26 14:26:01;;;;;;;18.98;10.10;;;;;;;16.83;97.05;101019.84;5566415;32;33635;-85
2022/10/26 14:29:16;;;;;;;17.33;9.52;;;;;;;16.76;97.56;101022.53;5566519;32;32157;-86
2022/10/26 14:32:32;;;;;;;18.77;9.85;;;;;;;16.72;98.25;101023.94;5583147;32;35351;-84
2022/10/26 14:35:36;;;;;;;20.02;10.68;;;;;;;16.76;97.62;101019.00;5569957;32;34101;-86
2022/10/26 14:38:44;;;;;;;19.42;9.45;;;;;;;16.74;97.67;101024.59;5567270;32;34570;-85
2022/10/26 14:41:49;;;;;;;16.83;9.18;;;;;;;16.74;98.02;101023.75;5567239;32;34000;-85
2022/10/26 14:44:52;;;;;;;21.67;10.55;;;;;;;16.67;98.58;101023.72;5567251;32;34926;-86
2022/10/26 14:47:55;;;;;;;20.92;10.10;;;;;;;16.66;99.24;101019.31;5567448;32;34377;-85
2022/10/26 14:50:58;;;;;;;22.83;10.73;;;;;;;16.54;100.00;101021.78;5566131;32;32809;-85
2022/10/26 14:54:02;;;;;;;19.65;10.50;;;;;;;16.55;100.00;101022.59;5568187;32;34691;-85
2022/10/26 14:57:35;;;;;;;20.67;11.25;;;;;;;16.54;99.93;101024.47;5568224;32;33971;-86
2022/10/26 15:00:39;;;;;;;18.83;10.30;;;;;;;16.48;100.00;101028.00;5567828;32;33764;-86
2022/10/26 15:03:49;;;;;;;22.33;11.05;;;;;;;16.44;100.00;101028.59;5566177;32;32696;-86
2022/10/26 15:07:01;;;;;;;18.92;10.45;;;;;;;16.37;100.00;101025.03;5567404;32;33586;-86
2022/10/26 15:10:05;;;;;;;18.50;10.35;;;;;;;16.35;100.00;101029.81;5568211;32;32388;-86
2022/10/26 15:13:32;;;;;;;22.37;11.07;;;;;;;16.32;100.00;101026.47;5573496;32;33783;-85
2022/10/26 15:16:35;;;;;;;19.25;10.40;;;;;;;16.28;100.00;101027.88;5571410;32;32830;-86
2022/10/26 15:19:38;;;;;;;20.05;10.95;;;;;;;16.18;100.00;101021.16;5571814;32;34174;-86
2022/10/26 15:22:52;;;;;;;21.37;10.05;;;;;;;16.16;100.00;101025.94;5569033;32;32968;-85
2022/10/26 15:26:00;;;;;;;20.40;10.88;;;;;;;16.10;100.00;101027.56;5569708;32;34753;-85
2022/10/26 15:29:02;;;;;;;18.40;10.05;;;;;;;16.07;100.00;101033.41;5569869;32;33878;-85
2022/10/26 15:32:30;;;;;;;20.70;10.13;;;;;;;16.01;100.00;101037.75;5568753;32;32662;-85
2022/10/26 15:35:32;;;;;;;19.27;10.35;;;;;;;15.97;100.00;101038.31;5570322;32;34364;-85
2022/10/26 15:38:35;;;;;;;20.20;9.70;;;;;;;15.91;100.00;101041.81;5570001;32;34745;-85
2022/10/26 15:41:45;;;;;;;19.55;10.55;;;;;;;15.85;100.00;101041.59;5570367;32;35240;-85
2022/10/26 15:44:51;;;;;;;25.42;13.43;;;;;;;15.77;100.00;101044.44;5570372;32;33433;-85
2022/10/26 15:47:57;;;;;;;28.20;13.10;;;;;;;15.76;100.00;101048.19;5570243;32;34674;-85
2022/10/26 15:51:00;;;;;;;25.45;11.45;;;;;;;15.79;100.00;101053.22;5567792;32;32926;-85
2022/10/26 15:54:04;;;;;;;23.98;11.12;;;;;;;15.76;100.00;101060.91;5569901;32;33586;-85
